Time;durP1;ratioP1;P1;durP2;ratioP2;P2;SDS_P1;SDS_P2;PMS_P1;PMS_P2;Temp;Humidity;BMP_temperature;BMP_pressure;BME280_temperature;BME280_humidity;BME280_pressure;Samples;Min_cycle;Max_cycle;Signal;HPM_P1;HPM_P2
2022/11/11 00:00:27;;;;;;;9.48;3.30;;;12.50;98.60;;;;;;5000513;28;20393;-69
2022/11/11 00:02:57;;;;;;;9.02;3.17;;;12.40;98.60;;;;;;4998122;28;20038;-69
2022/11/11 00:05:23;;;;;;;8.77;3.65;;;12.40;98.60;;;;;;4997769;28;20485;-69
2022/11/11 00:07:51;;;;;;;8.30;3.20;;;12.40;98.60;;;;;;4998360;28;20445;-69
2022/11/11 00:10:17;;;;;;;9.60;3.22;;;12.40;98.70;;;;;;4997784;28;20088;-69
2022/11/11 00:12:42;;;;;;;7.60;3.30;;;12.30;98.70;;;;;;5000010;28;20509;-68
2022/11/11 00:15:08;;;;;;;7.90;3.58;;;12.30;98.70;;;;;;5002863;28;20574;-68
2022/11/11 00:25:52;;;;;;;5.97;2.90;;;12.10;98.90;;;;;;4996185;28;20176;-68
2022/11/11 00:28:19;;;;;;;9.45;3.50;;;12.10;98.90;;;;;;4998325;28;20030;-68
2022/11/11 00:30:45;;;;;;;7.78;3.40;;;12.10;98.90;;;;;;5001781;28;20033;-69
2022/11/11 00:33:11;;;;;;;6.35;2.58;;;12.10;98.90;;;;;;4996856;28;20030;-69
2022/11/11 00:35:55;;;;;;;7.05;3.20;;;12.10;99.00;;;;;;4997947;28;20029;-68
2022/11/11 00:41:05;;;;;;;4.88;3.00;;;12.10;99.00;;;;;;4999452;28;20031;-69
2022/11/11 00:43:31;;;;;;;5.70;3.58;;;12.00;99.00;;;;;;4999160;28;20053;-69
2022/11/11 00:50:57;;;;;;;8.20;3.47;;;12.00;99.00;;;;;;4998974;28;20498;-69
2022/11/11 00:51:27;;;;;;;6.03;2.70;;;12.00;99.10;;;;;;4998681;28;20040;-70
2022/11/11 00:53:52;;;;;;;8.02;3.38;;;11.90;99.10;;;;;;4998112;28;20026;-69
2022/11/11 00:56:19;;;;;;;5.75;3.20;;;11.90;99.20;;;;;;4999518;28;20358;-69
2022/11/11 00:58:44;;;;;;;7.32;3.10;;;11.90;99.20;;;;;;4998352;28;20038;-70
2022/11/11 01:01:10;;;;;;;8.65;3.08;;;11.90;99.30;;;;;;4998237;28;20034;-69
2022/11/11 01:03:36;;;;;;;6.88;3.20;;;11.90;99.30;;;;;;4995671;28;20034;-69
2022/11/11 01:06:03;;;;;;;7.30;3.42;;;11.80;99.30;;;;;;4999423;28;20384;-69
2022/11/11 01:08:30;;;;;;;7.38;3.03;;;11.80;99.30;;;;;;4997083;28;20069;-68
2022/11/11 01:10:56;;;;;;;9.57;3.50;;;11.80;99.40;;;;;;5000293;28;20022;-68
2022/11/11 01:13:30;;;;;;;8.68;3.40;;;11.80;99.40;;;;;;4995828;28;20038;-68
2022/11/11 01:16:04;;;;;;;6.80;3.45;;;11.80;99.40;;;;;;5004080;28;20037;-69
2022/11/11 01:18:31;;;;;;;6.70;3.28;;;11.70;99.40;;;;;;4995582;28;20046;-68
2022/11/11 01:21:09;;;;;;;9.07;3.85;;;11.70;99.50;;;;;;4998871;28;20108;-69
2022/11/11 01:23:38;;;;;;;10.90;4.20;;;11.70;99.50;;;;;;4998010;28;20061;-68
2022/11/11 01:26:08;;;;;;;8.82;3.00;;;11.80;99.50;;;;;;4995871;28;20026;-69
2022/11/11 01:28:34;;;;;;;6.30;3.60;;;11.70;99.60;;;;;;4997743;28;20050;-68
2022/11/11 01:31:02;;;;;;;7.13;3.22;;;11.70;99.60;;;;;;4999355;28;20116;-69
2022/11/11 01:33:28;;;;;;;8.93;3.53;;;11.70;99.70;;;;;;5000363;28;20361;-69
2022/11/11 01:35:54;;;;;;;12.05;3.97;;;11.70;99.60;;;;;;5002825;28;20022;-69
2022/11/11 01:38:19;;;;;;;7.30;3.70;;;11.70;99.70;;;;;;4999235;28;20042;-69
2022/11/11 01:40:48;;;;;;;8.20;3.15;;;11.80;99.70;;;;;;5002472;28;20516;-68
2022/11/11 01:43:20;;;;;;;5.55;3.20;;;11.80;99.60;;;;;;5000653;28;20576;-69
2022/11/11 01:45:58;;;;;;;7.95;3.13;;;11.80;99.70;;;;;;5001635;28;20076;-68
2022/11/11 01:49:19;;;;;;;7.60;3.47;;;11.70;99.60;;;;;;5004668;28;20026;-68
2022/11/11 01:51:47;;;;;;;6.15;3.15;;;11.70;99.60;;;;;;5010901;28;20038;-68
2022/11/11 01:54:26;;;;;;;8.35;3.65;;;11.70;99.60;;;;;;5001935;28;20127;-68
2022/11/11 01:57:00;;;;;;;8.95;3.90;;;11.70;99.70;;;;;;5004733;28;20029;-68
2022/11/11 01:59:30;;;;;;;7.45;3.28;;;11.80;99.70;;;;;;5002538;28;20183;-68
2022/11/11 02:01:57;;;;;;;6.57;3.30;;;11.70;99.80;;;;;;5003448;28;20046;-68
2022/11/11 02:07:09;;;;;;;8.60;3.85;;;11.70;99.70;;;;;;5001183;28;20034;-68
2022/11/11 02:09:38;;;;;;;7.70;3.50;;;11.70;99.70;;;;;;4999385;28;20379;-68
2022/11/11 02:14:56;;;;;;;8.27;3.10;;;11.70;99.70;;;;;;5001066;28;20061;-68
2022/11/11 02:17:24;;;;;;;7.25;3.63;;;11.70;99.70;;;;;;5001082;28;20129;-68
2022/11/11 02:19:57;;;;;;;6.80;3.45;;;11.80;99.70;;;;;;5001493;28;20107;-68
2022/11/11 02:22:41;;;;;;;6.90;3.70;;;11.70;99.70;;;;;;5000271;28;20030;-69
2022/11/11 02:25:10;;;;;;;4.68;2.80;;;11.80;99.90;;;;;;5000255;28;21921;-69
2022/11/11 02:27:40;;;;;;;13.02;3.60;;;11.80;99.60;;;;;;5001371;28;20030;-69
2022/11/11 02:30:14;;;;;;;5.95;3.10;;;11.80;99.70;;;;;;4999917;28;20029;-69
2022/11/11 02:32:45;;;;;;;5.75;2.90;;;11.80;99.70;;;;;;5000762;28;20033;-69
2022/11/11 02:35:16;;;;;;;9.77;3.92;;;11.80;99.70;;;;;;5000226;28;20153;-69
2022/11/11 02:37:47;;;;;;;6.15;2.95;;;11.80;99.70;;;;;;5001237;28;20105;-70
2022/11/11 02:40:20;;;;;;;6.85;3.60;;;11.80;99.60;;;;;;5002704;28;20034;-68
2022/11/11 02:42:46;;;;;;;7.05;2.92;;;11.80;99.60;;;;;;4999315;28;20038;-69
2022/11/11 02:45:12;;;;;;;10.05;3.83;;;11.80;99.60;;;;;;5000721;28;20551;-69
2022/11/11 02:47:37;;;;;;;6.30;3.20;;;11.80;99.60;;;;;;4999867;28;20131;-69
2022/11/11 02:50:04;;;;;;;7.53;3.38;;;11.90;99.60;;;;;;4999186;28;20035;-70
2022/11/11 02:52:29;;;;;;;8.98;3.25;;;11.90;99.60;;;;;;4999784;28;20457;-69
2022/11/11 02:54:55;;;;;;;8.88;3.70;;;11.80;99.60;;;;;;4999185;28;20022;-69
2022/11/11 02:57:21;;;;;;;12.73;4.45;;;11.80;99.50;;;;;;4999397;28;20076;-68
2022/11/11 02:59:47;;;;;;;7.53;3.38;;;11.80;99.60;;;;;;5000807;28;20028;-69
2022/11/11 03:02:13;;;;;;;9.63;3.90;;;11.80;99.60;;;;;;5000514;28;20033;-68
2022/11/11 03:04:38;;;;;;;7.60;3.00;;;11.80;99.60;;;;;;4999980;28;20128;-68
2022/11/11 03:07:04;;;;;;;6.03;3.42;;;11.80;99.70;;;;;;4999362;28;20037;-68
2022/11/11 03:09:30;;;;;;;6.72;3.75;;;11.80;99.60;;;;;;5000406;28;20030;-68
2022/11/11 03:11:56;;;;;;;9.00;3.22;;;11.80;99.60;;;;;;5003805;28;20037;-68
2022/11/11 03:14:22;;;;;;;9.43;3.95;;;11.80;99.70;;;;;;5000493;28;20513;-69
2022/11/11 03:19:33;;;;;;;10.48;4.03;;;11.80;99.70;;;;;;4999204;28;20038;-69
2022/11/11 03:21:59;;;;;;;9.88;3.88;;;11.70;99.60;;;;;;4999724;28;20105;-70
2022/11/11 03:25:36;;;;;;;10.90;4.22;;;11.70;99.70;;;;;;5000073;28;20473;-69
2022/11/11 03:27:11;;;;;;;6.97;3.28;;;11.80;99.70;;;;;;4999813;28;20436;-69
2022/11/11 03:29:37;;;;;;;9.52;3.60;;;11.80;99.70;;;;;;4998423;28;20038;-69
2022/11/11 03:32:04;;;;;;;6.75;3.13;;;11.70;99.70;;;;;;4999087;28;20041;-69
2022/11/11 03:34:29;;;;;;;5.53;3.25;;;11.80;99.70;;;;;;4999695;28;20029;-70
2022/11/11 03:39:40;;;;;;;5.28;3.17;;;11.70;99.70;;;;;;4999221;28;20220;-69
2022/11/11 03:42:06;;;;;;;6.45;3.10;;;11.80;99.70;;;;;;4998657;28;20493;-70
2022/11/11 03:44:32;;;;;;;8.50;3.53;;;11.70;99.70;;;;;;4998174;28;20054;-69
2022/11/11 03:46:58;;;;;;;7.53;3.45;;;11.70;99.70;;;;;;4990819;28;20028;-70
2022/11/11 03:49:23;;;;;;;5.28;3.50;;;11.70;99.70;;;;;;5001103;28;20049;-69
2022/11/11 03:51:49;;;;;;;8.10;3.40;;;11.70;99.70;;;;;;4999709;28;20022;-69
2022/11/11 03:54:14;;;;;;;8.60;2.80;;;11.70;99.70;;;;;;4999251;28;20036;-70
2022/11/11 03:56:40;;;;;;;10.80;3.65;;;11.70;99.70;;;;;;5000106;28;20026;-69
2022/11/11 03:59:06;;;;;;;7.82;3.58;;;11.70;99.70;;;;;;4998414;28;20037;-70
2022/11/11 04:12:30;;;;;;;9.07;3.58;;;11.60;99.70;;;;;;4999085;28;20304;-70
2022/11/11 04:17:40;;;;;;;7.20;4.33;;;11.60;99.70;;;;;;4998125;28;20066;-70
2022/11/11 04:22:52;;;;;;;5.45;2.92;;;11.60;99.70;;;;;;4999700;28;20026;-69
2022/11/11 04:30:47;;;;;;;7.90;3.30;;;11.60;99.80;;;;;;4997435;28;20273;-70
2022/11/11 04:33:13;;;;;;;9.30;3.55;;;11.60;99.80;;;;;;5000145;28;21956;-70
2022/11/11 04:35:38;;;;;;;8.80;3.63;;;11.60;99.80;;;;;;4997591;28;20041;-70
2022/11/11 04:41:03;;;;;;;8.27;3.40;;;11.60;99.80;;;;;;4997833;28;20033;-70
2022/11/11 04:45:26;;;;;;;8.40;3.83;;;11.50;99.80;;;;;;4996258;28;20038;-70
2022/11/11 04:46:17;;;;;;;6.57;3.97;;;11.50;99.80;;;;;;4998146;28;20034;-70
2022/11/11 04:48:43;;;;;;;8.43;3.53;;;11.60;99.80;;;;;;5005892;28;20501;-70
2022/11/11 04:51:09;;;;;;;6.40;3.67;;;11.60;99.80;;;;;;4999516;28;20030;-70
2022/11/11 04:53:36;;;;;;;7.30;3.17;;;11.60;99.80;;;;;;4997586;28;20030;-70
2022/11/11 04:58:46;;;;;;;8.77;3.63;;;11.60;99.80;;;;;;4997654;28;20042;-69
2022/11/11 05:03:14;;;;;;;7.00;3.28;;;11.50;99.70;;;;;;4999491;28;20026;-69
2022/11/11 05:03:58;;;;;;;6.45;3.63;;;11.60;99.80;;;;;;4998342;28;20038;-69
2022/11/11 05:08:54;;;;;;;8.75;3.40;;;11.60;99.80;;;;;;4999826;28;20030;-69
2022/11/11 05:09:13;;;;;;;12.20;4.68;;;11.60;99.80;;;;;;5000195;28;20148;-69
2022/11/11 05:11:39;;;;;;;7.53;3.97;;;11.60;99.80;;;;;;5003358;28;20024;-69
2022/11/11 05:22:33;;;;;;;7.57;4.03;;;11.60;99.70;;;;;;5003589;28;20052;-70
2022/11/11 05:27:43;;;;;;;8.50;3.53;;;11.60;99.70;;;;;;5002149;28;20080;-69
2022/11/11 05:30:11;;;;;;;9.02;4.30;;;11.60;99.70;;;;;;5001819;28;20402;-69
2022/11/11 05:32:38;;;;;;;8.30;3.70;;;11.60;99.70;;;;;;5003345;28;20034;-69
2022/11/11 05:35:04;;;;;;;7.43;3.72;;;11.60;99.70;;;;;;5001861;28;20038;-69
2022/11/11 05:37:30;;;;;;;7.78;3.72;;;11.60;99.70;;;;;;5001796;28;20693;-69
2022/11/11 05:39:55;;;;;;;7.72;3.25;;;11.60;99.70;;;;;;5000757;28;20565;-70
2022/11/11 05:42:21;;;;;;;7.05;3.72;;;11.60;99.70;;;;;;5001904;28;20030;-69
2022/11/11 05:44:47;;;;;;;5.63;3.90;;;11.60;99.70;;;;;;5002508;28;20172;-69
2022/11/11 05:47:13;;;;;;;8.77;3.55;;;11.60;99.70;;;;;;5000616;28;20448;-69
2022/11/11 05:49:39;;;;;;;8.05;4.05;;;11.60;99.70;;;;;;5001414;28;20481;-70
2022/11/11 05:52:05;;;;;;;8.38;3.40;;;11.60;99.70;;;;;;5001174;28;20084;-69
2022/11/11 05:54:31;;;;;;;7.00;3.53;;;11.60;99.60;;;;;;5000914;28;20053;-69
2022/11/11 05:56:57;;;;;;;5.97;3.40;;;11.60;99.60;;;;;;5000034;28;20715;-70
2022/11/11 05:59:23;;;;;;;7.32;3.90;;;11.60;99.70;;;;;;5000994;28;20026;-70
2022/11/11 06:01:48;;;;;;;10.32;3.58;;;11.60;99.70;;;;;;5001005;28;20907;-70
2022/11/11 06:04:14;;;;;;;6.95;3.42;;;11.60;99.70;;;;;;5000379;28;20623;-70
2022/11/11 06:06:40;;;;;;;8.27;3.50;;;11.60;99.70;;;;;;5001577;28;20481;-70
2022/11/11 06:09:06;;;;;;;10.27;3.58;;;11.60;99.70;;;;;;4999695;28;20565;-69
2022/11/11 06:11:32;;;;;;;7.20;3.58;;;11.60;99.70;;;;;;5002352;28;20025;-69
2022/11/11 06:14:04;;;;;;;6.85;4.35;;;11.60;99.70;;;;;;5003360;28;20033;-70
2022/11/11 06:16:30;;;;;;;9.27;4.00;;;11.60;99.70;;;;;;5000086;28;20037;-70
2022/11/11 06:18:58;;;;;;;5.13;3.47;;;11.60;99.70;;;;;;5000195;28;20912;-69
2022/11/11 06:21:25;;;;;;;7.95;4.03;;;11.60;99.90;;;;;;5000915;28;20426;-69
2022/11/11 06:23:51;;;;;;;6.22;4.00;;;11.50;99.70;;;;;;5001613;28;20409;-69
2022/11/11 06:26:18;;;;;;;6.05;2.92;;;11.50;99.70;;;;;;4998685;28;20057;-69
2022/11/11 06:28:48;;;;;;;6.43;3.55;;;11.50;99.70;;;;;;5000556;28;20060;-70
2022/11/11 06:31:16;;;;;;;6.68;3.63;;;11.50;99.70;;;;;;5000320;28;20088;-70
2022/11/11 06:33:42;;;;;;;6.93;3.67;;;11.50;99.70;;;;;;4998913;28;20080;-69
2022/11/11 06:36:10;;;;;;;7.10;3.60;;;11.50;99.70;;;;;;5001537;28;20125;-68
2022/11/11 06:38:36;;;;;;;12.00;4.20;;;11.50;99.70;;;;;;4997639;28;20056;-69
2022/11/11 06:41:02;;;;;;;7.38;3.63;;;11.50;99.70;;;;;;4999790;28;20204;-69
2022/11/11 06:43:28;;;;;;;10.25;4.43;;;11.50;99.70;;;;;;5000423;28;20091;-69
2022/11/11 06:45:54;;;;;;;7.25;4.10;;;11.50;99.80;;;;;;5001027;28;20034;-69
2022/11/11 06:48:22;;;;;;;7.47;4.38;;;11.40;99.90;;;;;;4999749;28;20026;-69
2022/11/11 06:50:48;;;;;;;6.97;3.42;;;11.50;99.80;;;;;;4999314;28;20038;-68
2022/11/11 06:53:16;;;;;;;7.60;4.32;;;11.50;99.80;;;;;;5000827;28;20432;-67
2022/11/11 06:55:42;;;;;;;6.93;3.72;;;11.50;99.80;;;;;;5001476;28;20030;-69
2022/11/11 06:58:18;;;;;;;8.23;4.15;;;11.50;99.80;;;;;;5001243;28;20524;-70
2022/11/11 07:00:45;;;;;;;7.85;4.15;;;11.50;99.80;;;;;;4998683;28;20080;-70
2022/11/11 07:03:14;;;;;;;8.93;4.72;;;11.50;99.80;;;;;;4999108;28;20069;-71
2022/11/11 07:05:40;;;;;;;5.85;4.00;;;11.50;99.80;;;;;;5000544;28;20037;-70
2022/11/11 07:08:08;;;;;;;5.45;3.30;;;11.50;99.90;;;;;;4998937;28;20029;-67
2022/11/11 07:10:37;;;;;;;8.25;3.95;;;11.50;99.90;;;;;;5003692;28;20044;-68
2022/11/11 07:13:03;;;;;;;6.60;3.85;;;11.60;99.90;;;;;;4999828;28;20932;-69
2022/11/11 07:15:30;;;;;;;7.78;3.90;;;11.60;99.80;;;;;;5000000;28;20068;-69
2022/11/11 07:17:56;;;;;;;10.10;3.38;;;11.60;99.80;;;;;;5000146;28;20042;-68
2022/11/11 07:20:21;;;;;;;10.48;4.15;;;11.60;99.80;;;;;;4998009;28;20030;-68
2022/11/11 07:22:47;;;;;;;6.97;3.65;;;11.70;99.80;;;;;;4998755;28;20041;-67
2022/11/11 07:25:13;;;;;;;6.20;3.63;;;11.70;99.70;;;;;;4998615;28;20024;-68
2022/11/11 07:27:39;;;;;;;9.68;4.55;;;11.70;99.70;;;;;;4998735;28;20061;-69
2022/11/11 07:30:06;;;;;;;7.35;4.07;;;11.70;99.70;;;;;;4997846;28;20037;-68
2022/11/11 07:32:32;;;;;;;8.70;3.35;;;11.70;99.70;;;;;;5000285;28;20026;-70
2022/11/11 07:34:58;;;;;;;7.35;4.13;;;11.80;99.70;;;;;;5001067;28;20117;-68
2022/11/11 07:37:24;;;;;;;8.38;4.18;;;11.80;99.70;;;;;;4998891;28;20087;-68
2022/11/11 07:39:50;;;;;;;5.93;3.20;;;11.80;99.70;;;;;;4998946;28;20128;-69
2022/11/11 07:42:16;;;;;;;7.68;3.60;;;11.80;99.60;;;;;;4999521;28;20034;-69
2022/11/11 07:44:42;;;;;;;8.00;3.88;;;11.90;99.60;;;;;;4998065;28;20049;-68
2022/11/11 07:47:08;;;;;;;9.00;4.15;;;11.90;99.60;;;;;;4999167;28;20416;-69
2022/11/11 07:49:34;;;;;;;6.90;3.67;;;11.90;99.60;;;;;;4998622;28;20025;-68
2022/11/11 07:52:00;;;;;;;7.55;3.92;;;11.90;99.60;;;;;;4998323;28;20040;-69
2022/11/11 07:54:26;;;;;;;9.13;4.30;;;12.00;99.60;;;;;;4998712;28;20037;-68
2022/11/11 07:56:52;;;;;;;8.00;3.47;;;12.00;99.60;;;;;;4998799;28;20524;-68
2022/11/11 07:59:18;;;;;;;9.60;4.53;;;12.10;99.60;;;;;;4998342;28;20038;-68
2022/11/11 08:01:44;;;;;;;6.78;3.58;;;12.10;99.50;;;;;;4999834;28;20121;-68
2022/11/11 08:04:10;;;;;;;12.35;4.18;;;12.20;99.40;;;;;;5000576;28;20040;-68
2022/11/11 08:06:36;;;;;;;8.32;4.20;;;12.20;99.40;;;;;;4999878;28;20363;-68
2022/11/11 08:09:02;;;;;;;7.20;3.80;;;12.20;99.30;;;;;;5000605;28;20564;-69
2022/11/11 08:14:13;;;;;;;9.30;3.90;;;12.30;99.30;;;;;;5000454;28;20061;-68
2022/11/11 08:16:39;;;;;;;9.50;3.83;;;12.40;99.20;;;;;;5002462;28;20340;-68
2022/11/11 08:19:04;;;;;;;8.10;4.13;;;12.40;99.20;;;;;;4997845;28;20493;-68
2022/11/11 08:21:30;;;;;;;9.73;4.57;;;12.40;99.10;;;;;;4997633;28;20056;-69
2022/11/11 08:23:56;;;;;;;7.60;3.97;;;12.40;99.10;;;;;;4998269;28;20038;-68
2022/11/11 08:26:22;;;;;;;7.47;4.55;;;12.50;99.10;;;;;;4998809;28;20029;-68
2022/11/11 08:28:52;;;;;;;6.72;4.13;;;12.50;99.10;;;;;;4996477;28;20034;-69
2022/11/11 08:31:17;;;;;;;6.35;3.42;;;12.50;99.10;;;;;;4997544;28;20049;-68
2022/11/11 08:33:43;;;;;;;8.50;3.80;;;12.50;99.00;;;;;;4998432;28;20026;-69
2022/11/11 08:36:10;;;;;;;7.00;4.03;;;12.60;99.00;;;;;;4998632;28;20566;-68
2022/11/11 08:38:36;;;;;;;8.45;3.78;;;12.70;98.90;;;;;;4997832;28;20627;-68
2022/11/11 08:41:04;;;;;;;11.20;4.68;;;12.70;98.90;;;;;;4999274;28;20493;-69
2022/11/11 08:43:31;;;;;;;8.18;3.40;;;12.70;98.80;;;;;;5001815;28;20604;-69
2022/11/11 08:45:58;;;;;;;10.43;4.30;;;12.80;98.80;;;;;;5005018;28;20042;-68
2022/11/11 08:48:24;;;;;;;8.07;3.90;;;12.80;98.70;;;;;;5001221;28;20045;-69
2022/11/11 08:50:52;;;;;;;7.85;3.13;;;12.90;98.60;;;;;;5001489;28;20485;-69
2022/11/11 08:53:18;;;;;;;7.70;3.58;;;13.00;98.60;;;;;;5002393;28;20817;-69
2022/11/11 08:55:44;;;;;;;8.80;3.55;;;13.00;98.70;;;;;;5001259;28;20026;-69
2022/11/11 08:58:11;;;;;;;7.78;3.30;;;13.00;98.40;;;;;;5002654;28;20037;-69
2022/11/11 09:00:37;;;;;;;9.13;3.88;;;13.10;98.40;;;;;;5002305;28;20026;-69
2022/11/11 09:03:05;;;;;;;8.13;3.33;;;13.20;98.40;;;;;;5001545;28;20076;-69
2022/11/11 09:05:32;;;;;;;7.05;3.47;;;13.20;98.30;;;;;;5001851;28;20033;-69
2022/11/11 09:08:04;;;;;;;5.22;3.13;;;13.30;98.20;;;;;;5002740;28;20041;-69
2022/11/11 09:10:30;;;;;;;6.82;3.28;;;13.40;98.20;;;;;;5000433;28;20052;-69
2022/11/11 09:12:57;;;;;;;9.50;3.70;;;13.40;98.10;;;;;;5003217;28;20573;-69
2022/11/11 09:15:23;;;;;;;7.10;3.53;;;13.40;98.10;;;;;;5005955;28;20041;-69
2022/11/11 09:17:49;;;;;;;5.68;3.00;;;13.40;98.10;;;;;;5005464;28;20042;-69
2022/11/11 09:20:15;;;;;;;8.70;3.90;;;13.50;98.00;;;;;;5002406;28;20500;-68
2022/11/11 09:22:42;;;;;;;6.18;3.05;;;13.60;97.90;;;;;;5002508;28;20088;-69
2022/11/11 09:25:09;;;;;;;10.13;3.65;;;13.60;97.80;;;;;;5001400;28;20022;-69
2022/11/11 09:27:34;;;;;;;7.07;3.17;;;13.60;98.00;;;;;;5002495;28;20025;-71
2022/11/11 09:30:00;;;;;;;9.98;3.15;;;13.70;97.80;;;;;;5002445;28;20033;-70
2022/11/11 09:32:26;;;;;;;13.57;3.53;;;13.80;97.70;;;;;;5001075;28;20026;-70
2022/11/11 09:34:54;;;;;;;8.57;3.10;;;13.90;97.50;;;;;;5000670;28;20092;-70
2022/11/11 09:37:20;;;;;;;7.35;3.25;;;13.90;97.40;;;;;;5001185;28;20033;-69
2022/11/11 09:39:46;;;;;;;8.30;3.35;;;14.00;97.30;;;;;;5002425;28;20038;-70
2022/11/11 09:42:38;;;;;;;9.10;3.60;;;14.00;97.20;;;;;;5000012;28;20037;-69
2022/11/11 09:45:12;;;;;;;6.82;2.90;;;14.10;97.10;;;;;;5000114;28;20122;-70
2022/11/11 09:47:41;;;;;;;6.85;2.70;;;14.10;97.00;;;;;;5001127;28;20087;-69
2022/11/11 09:50:12;;;;;;;5.45;2.80;;;14.10;96.90;;;;;;5001623;28;20039;-69
2022/11/11 09:52:53;;;;;;;7.28;3.30;;;14.10;96.70;;;;;;5001813;28;20038;-70
2022/11/11 09:55:31;;;;;;;5.88;2.88;;;14.20;96.70;;;;;;5000157;28;20026;-69
2022/11/11 09:58:23;;;;;;;11.40;3.40;;;14.20;96.60;;;;;;5001745;28;20049;-69
2022/11/11 10:01:21;;;;;;;5.80;3.17;;;14.30;96.60;;;;;;5000440;28;20038;-69
2022/11/11 10:03:59;;;;;;;9.45;3.63;;;14.30;96.70;;;;;;5000183;28;20030;-68
2022/11/11 10:06:32;;;;;;;8.32;4.07;;;14.40;96.60;;;;;;5001797;28;20025;-65
2022/11/11 10:09:24;;;;;;;6.60;3.13;;;14.30;96.60;;;;;;5000999;28;20068;-65
2022/11/11 10:12:09;;;;;;;9.43;3.58;;;14.40;96.60;;;;;;5005117;28;20045;-66
2022/11/11 10:14:41;;;;;;;7.45;3.63;;;14.40;96.50;;;;;;4992397;28;20030;-66
2022/11/11 10:17:28;;;;;;;8.27;3.17;;;14.50;96.50;;;;;;5014331;28;20088;-66
2022/11/11 10:20:28;;;;;;;8.00;3.40;;;14.50;96.40;;;;;;5000977;28;20144;-68
2022/11/11 10:23:08;;;;;;;6.03;3.20;;;14.50;96.30;;;;;;5003019;28;20048;-67
2022/11/11 10:25:35;;;;;;;8.38;3.10;;;14.60;96.30;;;;;;4999883;28;20045;-67
2022/11/11 10:28:02;;;;;;;5.00;2.97;;;14.60;96.30;;;;;;5000316;28;20052;-67
2022/11/11 10:30:31;;;;;;;5.55;2.95;;;14.60;96.10;;;;;;4996853;28;20117;-66
2022/11/11 10:33:04;;;;;;;6.43;3.33;;;14.60;96.20;;;;;;4998900;28;20036;-64
2022/11/11 10:35:31;;;;;;;8.88;3.70;;;14.60;96.10;;;;;;4999787;28;20452;-64
2022/11/11 10:38:20;;;;;;;7.00;3.60;;;14.70;96.10;;;;;;5002932;28;20121;-64
2022/11/11 10:40:52;;;;;;;6.35;2.97;;;14.70;96.10;;;;;;5012103;28;20029;-64
2022/11/11 10:43:24;;;;;;;4.85;2.72;;;14.70;96.00;;;;;;5012929;28;20030;-64
2022/11/11 10:46:06;;;;;;;8.57;3.28;;;14.80;96.00;;;;;;5013756;28;20029;-64
2022/11/11 10:48:40;;;;;;;5.78;2.88;;;14.80;95.80;;;;;;5013019;28;20042;-64
2022/11/11 10:51:06;;;;;;;5.78;2.78;;;14.90;95.80;;;;;;5012792;28;20104;-64
2022/11/11 10:53:57;;;;;;;4.55;2.70;;;14.90;95.80;;;;;;5013598;28;20069;-65
2022/11/11 10:56:42;;;;;;;5.38;2.90;;;14.90;95.80;;;;;;5013164;28;20030;-65
2022/11/11 10:59:22;;;;;;;6.72;3.05;;;14.90;95.90;;;;;;5013061;28;20038;-65
2022/11/11 11:02:03;;;;;;;5.38;3.25;;;14.90;95.70;;;;;;5013135;28;20038;-65
2022/11/11 11:04:49;;;;;;;8.77;3.58;;;14.90;95.60;;;;;;5012718;28;20034;-65
2022/11/11 11:07:23;;;;;;;6.60;3.13;;;15.00;95.60;;;;;;5011685;28;20556;-64
2022/11/11 11:10:03;;;;;;;6.90;3.38;;;15.10;95.60;;;;;;5011853;28;20037;-64
2022/11/11 11:12:49;;;;;;;6.05;3.42;;;15.10;95.50;;;;;;5001013;28;20045;-63
2022/11/11 11:15:25;;;;;;;6.70;3.78;;;15.10;95.40;;;;;;5009777;28;20052;-65
2022/11/11 11:18:23;;;;;;;8.38;3.30;;;15.20;95.40;;;;;;5013080;28;20038;-65
2022/11/11 11:21:04;;;;;;;7.25;4.00;;;15.20;95.40;;;;;;5011473;28;20033;-64
2022/11/11 11:23:43;;;;;;;7.15;3.65;;;15.20;95.30;;;;;;5013057;28;20025;-64
2022/11/11 11:26:11;;;;;;;7.90;3.40;;;15.20;95.30;;;;;;5010384;28;20026;-65
2022/11/11 11:28:58;;;;;;;5.57;2.90;;;15.20;95.20;;;;;;5012705;28;20034;-65
2022/11/11 11:31:38;;;;;;;5.90;3.00;;;15.30;95.20;;;;;;5012613;28;20026;-65
2022/11/11 11:34:04;;;;;;;5.22;2.50;;;15.30;95.10;;;;;;5012844;28;20033;-65
2022/11/11 11:36:30;;;;;;;6.88;2.53;;;15.30;95.00;;;;;;5010960;28;20034;-66
2022/11/11 11:38:56;;;;;;;7.10;3.22;;;15.30;95.00;;;;;;5011653;28;20038;-64
2022/11/11 11:41:42;;;;;;;8.05;3.00;;;15.30;94.90;;;;;;5011625;28;20029;-64
2022/11/11 11:44:32;;;;;;;6.40;4.00;;;15.30;94.90;;;;;;5000222;28;20046;-65
2022/11/11 11:47:20;;;;;;;7.25;3.55;;;15.40;94.80;;;;;;5007250;28;20034;-65
2022/11/11 11:50:04;;;;;;;6.93;3.22;;;15.40;94.80;;;;;;5012007;28;20052;-64
2022/11/11 11:52:48;;;;;;;5.82;3.53;;;15.40;94.70;;;;;;5012765;28;20032;-64
2022/11/11 11:55:30;;;;;;;9.18;3.83;;;15.40;94.70;;;;;;5006861;28;20018;-65
2022/11/11 11:58:20;;;;;;;6.25;3.17;;;15.40;94.70;;;;;;4993128;28;20034;-65
2022/11/11 12:01:03;;;;;;;7.40;3.38;;;15.30;94.70;;;;;;5008561;28;20064;-65
2022/11/11 12:04:11;;;;;;;8.13;3.05;;;15.30;95.00;;;;;;5011401;28;20030;-66
2022/11/11 12:07:03;;;;;;;5.30;2.90;;;15.30;94.70;;;;;;5010961;28;20460;-65
2022/11/11 12:09:46;;;;;;;4.22;2.65;;;15.40;94.80;;;;;;4991352;28;20046;-65
2022/11/11 12:12:49;;;;;;;6.75;3.10;;;15.40;94.70;;;;;;4993269;28;20126;-66
2022/11/11 12:15:28;;;;;;;6.05;3.13;;;15.40;94.70;;;;;;5010704;28;20065;-65
2022/11/11 12:18:16;;;;;;;4.25;2.65;;;15.40;94.60;;;;;;5003831;28;20535;-65
2022/11/11 12:20:56;;;;;;;5.18;3.05;;;15.40;94.60;;;;;;4998540;28;20068;-65
2022/11/11 12:23:38;;;;;;;6.28;3.20;;;15.40;94.50;;;;;;4998175;28;20144;-65
2022/11/11 12:26:10;;;;;;;5.28;2.75;;;15.40;94.50;;;;;;4998281;28;20045;-65
2022/11/11 12:29:13;;;;;;;5.55;2.85;;;15.40;94.50;;;;;;4997394;28;20055;-65
2022/11/11 12:31:54;;;;;;;5.80;3.00;;;15.40;94.60;;;;;;4998980;28;20050;-66
2022/11/11 12:34:48;;;;;;;4.03;2.75;;;15.50;94.50;;;;;;4998114;28;20030;-65
2022/11/11 12:37:42;;;;;;;6.20;2.88;;;15.40;94.50;;;;;;4996496;28;20125;-65
2022/11/11 12:40:45;;;;;;;7.20;3.25;;;15.50;94.50;;;;;;5001430;28;20046;-65
2022/11/11 12:43:32;;;;;;;4.85;2.70;;;15.50;94.50;;;;;;4998296;28;20077;-64
2022/11/11 12:46:13;;;;;;;4.10;2.75;;;15.50;94.50;;;;;;4998430;28;20060;-64
2022/11/11 12:49:08;;;;;;;5.10;2.88;;;15.50;94.40;;;;;;4999016;28;20038;-64
2022/11/11 12:51:38;;;;;;;7.80;2.78;;;15.60;94.40;;;;;;4997919;28;20033;-64
2022/11/11 12:54:16;;;;;;;4.35;2.88;;;15.50;94.70;;;;;;4998793;28;20069;-65
2022/11/11 12:57:01;;;;;;;7.90;3.10;;;15.50;94.40;;;;;;4998813;28;20030;-65
2022/11/11 12:59:27;;;;;;;7.75;3.28;;;15.50;94.40;;;;;;4998799;28;20056;-65
2022/11/11 13:02:04;;;;;;;5.38;2.80;;;15.60;94.40;;;;;;4998958;28;20340;-65
2022/11/11 13:04:49;;;;;;;4.63;2.50;;;15.60;94.30;;;;;;4998091;28;20030;-65
2022/11/11 13:07:30;;;;;;;4.88;2.60;;;15.60;94.30;;;;;;4999837;28;20060;-65
2022/11/11 13:10:28;;;;;;;5.32;2.65;;;15.60;94.20;;;;;;5000022;28;20026;-65
2022/11/11 13:13:12;;;;;;;6.22;2.80;;;15.60;94.10;;;;;;4999891;28;20034;-65
2022/11/11 13:15:37;;;;;;;5.10;2.70;;;15.60;94.10;;;;;;4998975;28;20173;-65
2022/11/11 13:18:13;;;;;;;3.75;2.25;;;15.60;94.10;;;;;;5000035;28;20615;-65
2022/11/11 13:20:51;;;;;;;6.43;2.38;;;15.60;94.10;;;;;;4996595;28;20036;-65
2022/11/11 13:23:16;;;;;;;6.93;2.90;;;15.60;94.10;;;;;;4999182;28;20026;-65
2022/11/11 13:25:49;;;;;;;5.68;2.88;;;15.60;94.20;;;;;;4997908;28;20517;-65
2022/11/11 13:28:39;;;;;;;7.10;3.55;;;15.60;94.10;;;;;;5001443;28;20033;-65
2022/11/11 13:31:23;;;;;;;6.20;3.45;;;15.60;94.10;;;;;;5001684;28;20044;-65
2022/11/11 13:33:54;;;;;;;5.68;3.40;;;15.60;94.00;;;;;;5001217;28;20042;-65
2022/11/11 13:36:24;;;;;;;5.72;2.78;;;15.60;94.00;;;;;;5016597;28;20033;-65
2022/11/11 13:38:57;;;;;;;6.50;3.25;;;15.60;93.90;;;;;;5000873;28;20456;-65
2022/11/11 13:41:25;;;;;;;5.97;3.03;;;15.50;94.00;;;;;;5002521;28;20048;-66
2022/11/11 13:43:54;;;;;;;6.22;3.60;;;15.50;94.00;;;;;;5001890;28;20050;-66
2022/11/11 13:46:29;;;;;;;5.15;2.80;;;15.50;94.00;;;;;;5001220;28;20038;-65
2022/11/11 13:48:55;;;;;;;6.00;3.05;;;15.50;94.10;;;;;;4991410;28;20034;-65
2022/11/11 13:51:37;;;;;;;10.32;4.22;;;15.50;94.00;;;;;;5001149;28;20067;-65
2022/11/11 13:54:18;;;;;;;6.25;3.92;;;15.50;94.00;;;;;;5000979;28;20038;-65
2022/11/11 13:56:46;;;;;;;11.02;3.95;;;15.50;94.00;;;;;;5002211;28;20067;-65
2022/11/11 13:59:30;;;;;;;9.35;5.15;;;15.40;94.00;;;;;;5004454;28;20034;-65
2022/11/11 14:02:31;;;;;;;9.33;4.30;;;15.50;94.10;;;;;;5001726;28;20059;-64
2022/11/11 14:05:07;;;;;;;9.20;4.32;;;15.40;94.10;;;;;;5002615;28;20042;-63
2022/11/11 14:07:48;;;;;;;8.75;5.30;;;15.40;94.10;;;;;;5000051;28;20512;-64
2022/11/11 14:10:16;;;;;;;9.50;5.10;;;15.40;94.10;;;;;;4999834;28;20556;-65
2022/11/11 14:12:46;;;;;;;8.52;4.97;;;15.40;94.10;;;;;;5003075;28;20499;-66
2022/11/11 14:15:37;;;;;;;7.32;3.90;;;15.30;94.10;;;;;;5000613;28;20037;-65